createdAt,value
2022-11-13T00:00:07.259Z,6.35
2022-11-13T00:00:17.282Z,6.28
2022-11-13T00:00:27.393Z,6.29
2022-11-13T00:00:37.180Z,6.28
2022-11-13T00:00:47.206Z,6.30
2022-11-13T00:00:57.256Z,6.28
2022-11-13T00:01:07.244Z,6.26
2022-11-13T00:01:17.249Z,6.26
2022-11-13T00:01:27.250Z,6.28
2022-11-13T00:01:37.380Z,6.28
2022-11-13T00:01:47.242Z,6.25
2022-11-13T00:01:57.305Z,6.26
2022-11-13T00:02:07.460Z,6.30
2022-11-13T00:02:17.486Z,6.26
2022-11-13T00:02:27.379Z,6.29
2022-11-13T00:02:37.347Z,6.30
2022-11-13T00:02:47.365Z,6.28
2022-11-13T00:02:57.261Z,6.26
2022-11-13T00:03:07.240Z,6.29
2022-11-13T00:03:17.247Z,6.30
2022-11-13T00:03:27.208Z,6.29
2022-11-13T00:03:37.325Z,6.28
2022-11-13T00:03:47.224Z,6.28
2022-11-13T00:03:57.161Z,6.29
2022-11-13T00:04:07.432Z,6.22
2022-11-13T00:04:17.412Z,6.22
2022-11-13T00:04:27.473Z,6.26
2022-11-13T00:04:37.261Z,6.22
2022-11-13T00:04:47.436Z,6.19
2022-11-13T00:04:57.225Z,6.22
2022-11-13T00:05:07.344Z,6.25
2022-11-13T00:05:17.426Z,6.22
2022-11-13T00:05:27.280Z,6.19
2022-11-13T00:05:37.196Z,6.21
2022-11-13T00:05:47.351Z,6.19
2022-11-13T00:05:57.397Z,6.25
2022-11-13T00:06:07.190Z,6.19
2022-11-13T00:06:17.244Z,6.21
2022-11-13T00:06:27.227Z,6.16
2022-11-13T00:06:37.371Z,6.25
2022-11-13T00:06:47.242Z,6.22
2022-11-13T00:06:59.344Z,6.25
2022-11-13T00:07:07.215Z,6.21
2022-11-13T00:07:17.373Z,6.21
2022-11-13T00:07:27.492Z,6.19
2022-11-13T00:07:37.202Z,6.19
2022-11-13T00:07:47.160Z,6.19
2022-11-13T00:07:57.446Z,6.25
2022-11-13T00:08:07.314Z,6.19
2022-11-13T00:08:17.241Z,6.19
2022-11-13T00:08:27.679Z,6.16
2022-11-13T00:08:37.314Z,6.22
2022-11-13T00:08:47.333Z,6.18
2022-11-13T00:08:57.235Z,6.19
2022-11-13T00:09:07.206Z,6.16
2022-11-13T00:09:17.355Z,6.16
2022-11-13T00:09:27.354Z,6.18
2022-11-13T00:09:37.252Z,6.19
2022-11-13T00:09:47.288Z,6.16
2022-11-13T00:09:57.315Z,6.19
2022-11-13T00:10:07.210Z,6.16
2022-11-13T00:10:17.251Z,6.16
2022-11-13T00:10:27.293Z,6.18
2022-11-13T00:10:37.263Z,6.18
2022-11-13T00:10:47.437Z,6.18
2022-11-13T00:10:57.362Z,6.16
2022-11-13T00:11:07.445Z,6.14
2022-11-13T00:11:17.339Z,6.14
2022-11-13T00:11:27.303Z,6.16
2022-11-13T00:11:37.299Z,6.14
2022-11-13T00:11:47.204Z,6.11
2022-11-13T00:11:57.254Z,6.14
2022-11-13T00:12:07.376Z,6.14
2022-11-13T00:12:17.158Z,6.16
2022-11-13T00:12:27.175Z,6.13
2022-11-13T00:12:37.195Z,6.16
2022-11-13T00:12:47.441Z,6.18
2022-11-13T00:12:57.399Z,6.18
2022-11-13T00:13:07.338Z,6.09
2022-11-13T00:13:17.163Z,6.16
2022-11-13T00:13:30.321Z,6.16
2022-11-13T00:13:37.308Z,6.14
2022-11-13T00:13:47.277Z,6.16
2022-11-13T00:13:57.442Z,6.16
2022-11-13T00:14:07.463Z,6.16
2022-11-13T00:14:17.279Z,6.16
2022-11-13T00:14:27.421Z,6.16
2022-11-13T00:14:37.208Z,6.14
2022-11-13T00:14:47.227Z,6.14
2022-11-13T00:14:57.390Z,6.11
2022-11-13T00:15:07.215Z,6.14
2022-11-13T00:15:17.354Z,6.18
2022-11-13T00:15:27.208Z,6.16
2022-11-13T00:15:37.460Z,6.16
2022-11-13T00:15:47.312Z,6.11
2022-11-13T00:15:57.278Z,6.16
2022-11-13T00:16:07.249Z,6.13
2022-11-13T00:16:17.392Z,6.16
2022-11-13T00:16:27.249Z,6.16
2022-11-13T00:16:37.263Z,6.14
2022-11-13T00:16:47.402Z,6.14
2022-11-13T00:16:57.195Z,6.16
2022-11-13T00:17:07.461Z,6.13
2022-11-13T00:17:17.286Z,6.14
2022-11-13T00:17:27.242Z,6.16
2022-11-13T00:17:37.195Z,6.14
2022-11-13T00:17:47.167Z,6.19
2022-11-13T00:17:57.494Z,6.11
2022-11-13T00:18:07.260Z,6.11
2022-11-13T00:18:17.315Z,6.11
2022-11-13T00:18:27.624Z,6.10
2022-11-13T00:18:37.277Z,6.13
2022-11-13T00:18:47.424Z,6.16
2022-11-13T00:18:57.264Z,6.11
2022-11-13T00:19:07.193Z,6.10
2022-11-13T00:19:17.413Z,6.19
2022-11-13T00:19:27.201Z,6.11
2022-11-13T00:19:37.256Z,6.13
2022-11-13T00:19:47.320Z,6.11
2022-11-13T00:19:57.410Z,6.13
2022-11-13T00:20:07.277Z,6.10
2022-11-13T00:20:17.314Z,6.10
2022-11-13T00:20:27.428Z,6.09
2022-11-13T00:20:37.216Z,6.07
2022-11-13T00:20:47.250Z,6.11
2022-11-13T00:20:57.401Z,6.10
2022-11-13T00:21:07.310Z,6.10
2022-11-13T00:21:17.259Z,6.06
2022-11-13T00:21:27.262Z,6.10
2022-11-13T00:21:37.168Z,6.11
2022-11-13T00:21:47.299Z,6.07
2022-11-13T00:21:57.167Z,6.11
2022-11-13T00:22:07.186Z,6.09
2022-11-13T00:22:17.218Z,6.09
2022-11-13T00:22:27.225Z,6.09
2022-11-13T00:22:37.164Z,6.10
2022-11-13T00:22:47.438Z,6.07
2022-11-13T00:22:57.195Z,6.07
2022-11-13T00:23:07.419Z,6.10
2022-11-13T00:23:17.342Z,6.07
2022-11-13T00:23:27.273Z,6.07
2022-11-13T00:23:37.194Z,6.10
2022-11-13T00:23:47.389Z,6.07
2022-11-13T00:23:57.299Z,6.10
2022-11-13T00:24:07.289Z,6.06
2022-11-13T00:24:17.391Z,6.03
2022-11-13T00:24:27.377Z,6.04
2022-11-13T00:24:37.208Z,6.09
2022-11-13T00:24:47.242Z,6.01
2022-11-13T00:24:57.352Z,6.07
2022-11-13T00:25:07.391Z,6.07
2022-11-13T00:25:17.158Z,6.10
2022-11-13T00:25:27.196Z,6.07
2022-11-13T00:25:37.439Z,6.07
2022-11-13T00:25:47.256Z,6.09
2022-11-13T00:25:57.202Z,6.07
2022-11-13T00:26:07.311Z,6.06
2022-11-13T00:26:17.270Z,6.07
2022-11-13T00:26:27.317Z,6.06
2022-11-13T00:26:37.356Z,6.11
2022-11-13T00:26:47.192Z,6.03
2022-11-13T00:26:57.317Z,6.11
2022-11-13T00:27:07.185Z,6.06
2022-11-13T00:27:17.381Z,6.06
2022-11-13T00:27:27.177Z,6.07
2022-11-13T00:27:37.180Z,6.09
2022-11-13T00:27:47.435Z,6.06
2022-11-13T00:27:57.222Z,6.06
2022-11-13T00:28:07.169Z,6.04
2022-11-13T00:28:17.190Z,6.03
2022-11-13T00:28:27.636Z,6.06
2022-11-13T00:28:37.310Z,6.06
2022-11-13T00:28:47.275Z,6.01
2022-11-13T00:28:57.192Z,6.07
2022-11-13T00:29:07.362Z,6.09
2022-11-13T00:29:17.307Z,6.07
2022-11-13T00:29:27.192Z,6.06
2022-11-13T00:29:37.250Z,6.04
2022-11-13T00:29:47.419Z,6.04
2022-11-13T00:29:57.467Z,6.09
2022-11-13T00:30:07.253Z,6.07
2022-11-13T00:30:19.558Z,6.04
2022-11-13T00:30:27.174Z,6.04
2022-11-13T00:30:37.301Z,6.11
2022-11-13T00:30:47.482Z,6.06
2022-11-13T00:30:57.165Z,6.04
2022-11-13T00:31:07.256Z,6.04
2022-11-13T00:31:17.399Z,6.06
2022-11-13T00:31:27.357Z,6.09
2022-11-13T00:31:37.276Z,6.03
2022-11-13T00:31:47.170Z,6.06
2022-11-13T00:31:57.468Z,6.06
2022-11-13T00:32:07.421Z,6.06
2022-11-13T00:32:17.337Z,6.06
2022-11-13T00:32:27.157Z,6.07
2022-11-13T00:32:37.173Z,6.10
2022-11-13T00:32:47.228Z,6.04
2022-11-13T00:32:57.354Z,6.07
2022-11-13T00:33:07.225Z,6.06
2022-11-13T00:33:38.313Z,6.07
2022-11-13T00:33:55.028Z,6.03
2022-11-13T00:34:26.355Z,6.06
2022-11-13T00:34:33.017Z,6.07
2022-11-13T00:34:45.871Z,6.07
2022-11-13T00:34:46.468Z,6.09
2022-11-13T00:34:48.575Z,6.06
2022-11-13T00:34:52.795Z,6.04
2022-11-13T00:34:57.431Z,6.06
2022-11-13T00:35:07.461Z,6.09
2022-11-13T00:35:17.429Z,6.03
2022-11-13T00:35:27.330Z,6.01
2022-11-13T00:35:37.259Z,6.03
2022-11-13T00:35:47.238Z,6.03
2022-11-13T00:35:57.227Z,6.04
2022-11-13T00:36:07.192Z,6.03
2022-11-13T00:36:17.474Z,6.07
2022-11-13T00:36:27.342Z,6.01
2022-11-13T00:36:37.357Z,6.04
2022-11-13T00:36:47.215Z,6.09
2022-11-13T00:36:57.310Z,6.01
2022-11-13T00:37:07.356Z,6.03
2022-11-13T00:37:17.444Z,6.00
2022-11-13T00:37:27.469Z,6.03
2022-11-13T00:37:37.289Z,6.01
2022-11-13T00:37:47.438Z,6.00
2022-11-13T00:37:57.165Z,6.00
2022-11-13T00:38:07.246Z,6.06
2022-11-13T00:38:17.470Z,6.00
2022-11-13T00:38:27.630Z,6.00
2022-11-13T00:38:37.338Z,6.01
2022-11-13T00:38:47.302Z,5.98
2022-11-13T00:38:57.350Z,6.00
2022-11-13T00:39:07.176Z,6.00
2022-11-13T00:39:17.301Z,6.03
2022-11-13T00:39:27.275Z,6.01
2022-11-13T00:39:37.308Z,6.01
2022-11-13T00:39:47.346Z,5.96
2022-11-13T00:39:59.788Z,6.01
2022-11-13T00:40:07.164Z,5.96
2022-11-13T00:40:17.439Z,5.95
2022-11-13T00:40:27.157Z,5.96
2022-11-13T00:40:37.325Z,6.00
2022-11-13T00:40:47.285Z,6.00
2022-11-13T00:40:57.439Z,5.98
2022-11-13T00:41:07.196Z,5.95
2022-11-13T00:41:17.241Z,5.96
2022-11-13T00:41:27.303Z,5.96
2022-11-13T00:41:37.439Z,5.98
2022-11-13T00:41:47.452Z,5.96
2022-11-13T00:41:57.243Z,5.95
2022-11-13T00:42:07.193Z,5.95
2022-11-13T00:42:17.364Z,5.95
2022-11-13T00:42:27.443Z,5.95
2022-11-13T00:42:37.233Z,5.95
2022-11-13T00:42:47.359Z,5.95
2022-11-13T00:42:57.315Z,5.96
2022-11-13T00:43:07.178Z,5.88
2022-11-13T00:43:17.298Z,5.98
2022-11-13T00:43:27.195Z,5.93
2022-11-13T00:43:37.398Z,5.93
2022-11-13T00:43:47.480Z,5.91
2022-11-13T00:43:57.264Z,5.92
2022-11-13T00:44:07.186Z,5.95
2022-11-13T00:44:17.265Z,5.93
2022-11-13T00:44:27.237Z,5.91
2022-11-13T00:44:37.282Z,5.93
2022-11-13T00:44:47.413Z,5.91
2022-11-13T00:44:57.478Z,5.89
2022-11-13T00:45:07.375Z,5.93
2022-11-13T00:45:17.447Z,5.92
2022-11-13T00:45:27.363Z,5.95
2022-11-13T00:45:37.228Z,5.96
2022-11-13T00:45:47.232Z,5.89
2022-11-13T00:45:57.166Z,5.92
2022-11-13T00:46:07.421Z,5.93
2022-11-13T00:46:17.484Z,5.96
2022-11-13T00:46:27.196Z,5.93
2022-11-13T00:46:37.224Z,5.89
2022-11-13T00:46:47.424Z,5.96
2022-11-13T00:46:57.220Z,5.92
2022-11-13T00:47:07.238Z,5.96
2022-11-13T00:47:17.234Z,5.88
2022-11-13T00:47:27.196Z,5.92
2022-11-13T00:47:37.274Z,5.91
2022-11-13T00:47:47.290Z,5.89
2022-11-13T00:47:57.158Z,5.91
2022-11-13T00:48:07.472Z,5.91
2022-11-13T00:48:17.202Z,5.91
2022-11-13T00:48:27.585Z,5.93
2022-11-13T00:48:37.213Z,5.93
2022-11-13T00:48:47.196Z,5.88
2022-11-13T00:48:57.203Z,5.92
2022-11-13T00:49:07.202Z,5.89
2022-11-13T00:49:17.397Z,5.89
2022-11-13T00:49:27.265Z,5.92
2022-11-13T00:49:37.217Z,5.88
2022-11-13T00:49:47.314Z,5.89
2022-11-13T00:49:57.486Z,5.86
2022-11-13T00:50:07.361Z,5.91
2022-11-13T00:50:17.154Z,5.89
2022-11-13T00:50:27.450Z,5.91
2022-11-13T00:50:37.181Z,5.85
2022-11-13T00:50:47.167Z,5.86
2022-11-13T00:50:57.319Z,5.88
2022-11-13T00:51:07.369Z,5.89
2022-11-13T00:51:17.732Z,5.85
2022-11-13T00:51:27.249Z,5.85
2022-11-13T00:51:37.208Z,5.85
2022-11-13T00:51:47.255Z,5.86
2022-11-13T00:51:57.284Z,5.85
2022-11-13T00:52:07.371Z,5.86
2022-11-13T00:52:17.271Z,5.81
2022-11-13T00:52:27.298Z,5.82
2022-11-13T00:52:37.191Z,5.81
2022-11-13T00:52:47.222Z,5.83
2022-11-13T00:52:57.372Z,5.81
2022-11-13T00:53:07.411Z,5.82
2022-11-13T00:53:18.319Z,5.85
2022-11-13T00:53:27.391Z,5.78
2022-11-13T00:53:37.272Z,5.83
2022-11-13T00:53:47.344Z,5.78
2022-11-13T00:53:57.155Z,5.78
2022-11-13T00:54:07.170Z,5.78
2022-11-13T00:54:17.420Z,5.85
2022-11-13T00:54:27.189Z,5.77
2022-11-13T00:54:37.459Z,5.83
2022-11-13T00:54:47.213Z,5.82
2022-11-13T00:54:58.228Z,5.77
2022-11-13T00:55:07.455Z,5.78
2022-11-13T00:55:17.378Z,5.78
2022-11-13T00:55:27.402Z,5.78
2022-11-13T00:55:37.394Z,5.78
2022-11-13T00:55:47.290Z,5.77
2022-11-13T00:55:57.418Z,5.78
2022-11-13T00:56:07.319Z,5.81
2022-11-13T00:56:17.297Z,5.78
2022-11-13T00:56:27.440Z,5.77
2022-11-13T00:56:37.439Z,5.82
2022-11-13T00:56:47.344Z,5.75
2022-11-13T00:56:57.352Z,5.74
2022-11-13T00:57:07.172Z,5.74
2022-11-13T00:57:17.295Z,5.75
2022-11-13T00:57:27.250Z,5.74
2022-11-13T00:57:37.254Z,5.73
2022-11-13T00:57:47.338Z,5.73
2022-11-13T00:57:57.315Z,5.73
2022-11-13T00:58:07.456Z,5.74
2022-11-13T00:58:17.399Z,5.74
2022-11-13T00:58:27.717Z,5.74
2022-11-13T00:58:37.197Z,5.74
2022-11-13T00:58:47.419Z,5.73
2022-11-13T00:58:57.391Z,5.71
2022-11-13T00:59:07.266Z,5.75
2022-11-13T00:59:17.444Z,5.67
2022-11-13T00:59:27.222Z,5.68
2022-11-13T00:59:37.184Z,5.70
2022-11-13T00:59:47.360Z,5.73
2022-11-13T00:59:57.265Z,5.73
2022-11-13T01:00:07.423Z,5.70
2022-11-13T01:00:17.275Z,5.73
2022-11-13T01:00:27.176Z,5.71
2022-11-13T01:00:37.213Z,5.68
2022-11-13T01:00:47.390Z,5.73
2022-11-13T01:00:57.366Z,5.73
2022-11-13T01:01:07.371Z,5.74
2022-11-13T01:01:17.372Z,5.73
2022-11-13T01:01:27.265Z,5.74
2022-11-13T01:01:37.258Z,5.74
2022-11-13T01:01:47.378Z,5.74
2022-11-13T01:01:57.406Z,5.74
2022-11-13T01:02:07.320Z,5.71
2022-11-13T01:02:17.322Z,5.73
2022-11-13T01:02:27.402Z,5.74
2022-11-13T01:02:37.285Z,5.75
2022-11-13T01:02:47.431Z,5.74
2022-11-13T01:02:57.183Z,5.73
2022-11-13T01:03:07.436Z,5.73
2022-11-13T01:03:17.469Z,5.73
2022-11-13T01:03:27.195Z,5.73
2022-11-13T01:03:37.360Z,5.75
2022-11-13T01:03:47.206Z,5.73
2022-11-13T01:03:57.192Z,5.67
2022-11-13T01:04:08.227Z,5.73
2022-11-13T01:04:17.309Z,5.74
2022-11-13T01:04:27.241Z,5.74
2022-11-13T01:04:37.151Z,5.71
2022-11-13T01:04:47.292Z,5.70
2022-11-13T01:04:57.262Z,5.73
2022-11-13T01:05:07.200Z,5.74
2022-11-13T01:05:17.369Z,5.71
2022-11-13T01:05:27.361Z,5.73
2022-11-13T01:05:37.264Z,5.71
2022-11-13T01:05:47.314Z,5.71
2022-11-13T01:05:57.224Z,5.71
2022-11-13T01:06:07.168Z,5.71
2022-11-13T01:06:17.351Z,5.73
2022-11-13T01:06:27.223Z,5.73
2022-11-13T01:06:37.572Z,5.68
2022-11-13T01:06:47.430Z,5.68
2022-11-13T01:06:57.426Z,5.70
2022-11-13T01:07:07.359Z,5.73
2022-11-13T01:07:17.485Z,5.71
2022-11-13T01:07:27.220Z,5.67
2022-11-13T01:07:37.288Z,5.70
2022-11-13T01:07:47.379Z,5.70
2022-11-13T01:07:57.273Z,5.68
2022-11-13T01:08:07.404Z,5.70
2022-11-13T01:08:17.214Z,5.68
2022-11-13T01:08:27.715Z,5.73
2022-11-13T01:08:37.340Z,5.71
2022-11-13T01:08:47.363Z,5.67
2022-11-13T01:08:57.175Z,5.66
2022-11-13T01:09:07.267Z,5.67
2022-11-13T01:09:17.373Z,5.73
2022-11-13T01:09:27.239Z,5.66
2022-11-13T01:09:37.409Z,5.70
2022-11-13T01:09:47.392Z,5.68
2022-11-13T01:09:57.358Z,5.67
2022-11-13T01:10:07.212Z,5.66
2022-11-13T01:10:17.379Z,5.68
2022-11-13T01:10:27.276Z,5.68
2022-11-13T01:10:37.371Z,5.70
2022-11-13T01:10:52.097Z,5.66
2022-11-13T01:10:57.337Z,5.67
2022-11-13T01:11:07.235Z,5.63
2022-11-13T01:11:17.303Z,5.66
2022-11-13T01:11:27.224Z,5.68
2022-11-13T01:11:37.436Z,5.70
2022-11-13T01:11:47.735Z,5.66
2022-11-13T01:11:57.374Z,5.66
2022-11-13T01:12:07.302Z,5.64
2022-11-13T01:12:17.355Z,5.73
2022-11-13T01:12:27.409Z,5.68
2022-11-13T01:12:37.206Z,5.67
2022-11-13T01:12:47.257Z,5.68
2022-11-13T01:12:57.245Z,5.64
2022-11-13T01:13:07.301Z,5.66
2022-11-13T01:13:17.313Z,5.68
2022-11-13T01:13:27.288Z,5.63
2022-11-13T01:13:37.253Z,5.63
2022-11-13T01:13:47.314Z,5.68
2022-11-13T01:13:57.319Z,5.68
2022-11-13T01:14:07.217Z,5.64
2022-11-13T01:14:17.300Z,5.63
2022-11-13T01:14:27.275Z,5.63
2022-11-13T01:14:37.266Z,5.66
2022-11-13T01:14:47.475Z,5.57
2022-11-13T01:14:57.465Z,5.66
2022-11-13T01:15:07.339Z,5.67
2022-11-13T01:15:17.386Z,5.63
2022-11-13T01:15:27.199Z,5.66
2022-11-13T01:15:37.385Z,5.68
2022-11-13T01:15:47.363Z,5.63
2022-11-13T01:15:57.269Z,5.63
2022-11-13T01:16:07.355Z,5.63
2022-11-13T01:16:17.184Z,5.60
2022-11-13T01:16:27.318Z,5.63
2022-11-13T01:16:37.411Z,5.64
2022-11-13T01:16:47.292Z,5.63
2022-11-13T01:16:57.196Z,5.64
2022-11-13T01:17:07.359Z,5.60
2022-11-13T01:17:17.328Z,5.59
2022-11-13T01:17:27.294Z,5.60
2022-11-13T01:17:37.308Z,5.63
2022-11-13T01:17:47.206Z,5.63
2022-11-13T01:17:57.197Z,5.60
2022-11-13T01:18:07.259Z,5.60
2022-11-13T01:18:17.486Z,5.63
2022-11-13T01:18:27.614Z,5.63
2022-11-13T01:18:37.166Z,5.59
2022-11-13T01:18:47.399Z,5.63
2022-11-13T01:18:57.420Z,5.59
2022-11-13T01:19:07.187Z,5.63
2022-11-13T01:19:17.197Z,5.60
2022-11-13T01:19:27.469Z,5.63
2022-11-13T01:19:37.311Z,5.63
2022-11-13T01:19:47.240Z,5.60
2022-11-13T01:19:57.198Z,5.60
2022-11-13T01:20:07.321Z,5.57
2022-11-13T01:20:17.374Z,5.57
2022-11-13T01:20:27.447Z,5.63
2022-11-13T01:20:37.235Z,5.63
2022-11-13T01:20:47.318Z,5.59
2022-11-13T01:20:57.454Z,5.60
2022-11-13T01:21:07.334Z,5.57
2022-11-13T01:21:17.297Z,5.64
2022-11-13T01:21:27.478Z,5.59
2022-11-13T01:21:37.238Z,5.59
2022-11-13T01:21:47.447Z,5.57
2022-11-13T01:21:57.302Z,5.59
2022-11-13T01:22:07.173Z,5.57
2022-11-13T01:22:17.249Z,5.59
2022-11-13T01:22:27.286Z,5.59
2022-11-13T01:22:37.499Z,5.59
2022-11-13T01:22:47.223Z,5.63
2022-11-13T01:22:57.290Z,5.60
2022-11-13T01:23:07.294Z,5.59
2022-11-13T01:23:17.177Z,5.57
2022-11-13T01:23:27.348Z,5.56
2022-11-13T01:23:37.159Z,5.53
2022-11-13T01:23:47.246Z,5.59
2022-11-13T01:23:57.258Z,5.57
2022-11-13T01:24:07.287Z,5.57
2022-11-13T01:24:17.241Z,5.56
2022-11-13T01:24:27.348Z,5.56
2022-11-13T01:24:37.276Z,5.59
2022-11-13T01:24:47.442Z,5.55
2022-11-13T01:24:57.310Z,5.57
2022-11-13T01:25:07.203Z,5.63
2022-11-13T01:25:17.181Z,5.55
2022-11-13T01:25:27.378Z,5.57
2022-11-13T01:25:37.440Z,5.59
2022-11-13T01:25:47.419Z,5.57
2022-11-13T01:25:57.233Z,5.59
2022-11-13T01:26:07.308Z,5.59
2022-11-13T01:26:17.423Z,5.55
2022-11-13T01:26:27.230Z,5.50
2022-11-13T01:26:37.393Z,5.60
2022-11-13T01:26:47.324Z,5.59
2022-11-13T01:26:57.281Z,5.56
2022-11-13T01:27:07.437Z,5.55
2022-11-13T01:27:17.292Z,5.56
2022-11-13T01:27:27.411Z,5.55
2022-11-13T01:27:37.401Z,5.52
2022-11-13T01:27:47.459Z,5.57
2022-11-13T01:27:57.301Z,5.55
2022-11-13T01:28:07.356Z,5.56
2022-11-13T01:28:17.462Z,5.53
2022-11-13T01:28:27.755Z,5.56
2022-11-13T01:28:37.305Z,5.57
2022-11-13T01:28:47.472Z,5.55
2022-11-13T01:28:57.254Z,5.57
2022-11-13T01:29:07.402Z,5.50
2022-11-13T01:29:17.274Z,5.56
2022-11-13T01:29:27.227Z,5.56
2022-11-13T01:29:37.221Z,5.55
2022-11-13T01:29:47.185Z,5.52
2022-11-13T01:29:57.294Z,5.49
2022-11-13T01:30:07.406Z,5.56
2022-11-13T01:30:17.172Z,5.52
2022-11-13T01:30:27.395Z,5.52
2022-11-13T01:30:37.353Z,5.53
2022-11-13T01:30:47.427Z,5.52
2022-11-13T01:30:57.272Z,5.56
2022-11-13T01:31:07.308Z,5.55
2022-11-13T01:31:17.361Z,5.52
2022-11-13T01:31:27.294Z,5.52
2022-11-13T01:31:37.273Z,5.53
2022-11-13T01:31:47.299Z,5.56
2022-11-13T01:31:57.261Z,5.55
2022-11-13T01:32:07.192Z,5.53
2022-11-13T01:32:17.402Z,5.52
2022-11-13T01:32:27.225Z,5.56
2022-11-13T01:32:37.215Z,5.52
2022-11-13T01:32:47.166Z,5.55
2022-11-13T01:32:57.398Z,5.49
2022-11-13T01:33:07.369Z,5.52
2022-11-13T01:33:17.187Z,5.50
2022-11-13T01:33:27.313Z,5.56
2022-11-13T01:33:37.331Z,5.53
2022-11-13T01:33:47.195Z,5.50
2022-11-13T01:33:57.265Z,5.50
2022-11-13T01:34:07.240Z,5.53
2022-11-13T01:34:17.411Z,5.53
2022-11-13T01:34:27.188Z,5.52
2022-11-13T01:34:37.449Z,5.53
2022-11-13T01:34:47.169Z,5.56
2022-11-13T01:34:57.351Z,5.50
2022-11-13T01:35:07.153Z,5.52
2022-11-13T01:35:17.445Z,5.52
2022-11-13T01:35:27.414Z,5.49
2022-11-13T01:35:37.452Z,5.50
2022-11-13T01:35:47.439Z,5.53
2022-11-13T01:35:57.288Z,5.50
2022-11-13T01:36:07.319Z,5.53
2022-11-13T01:36:17.253Z,5.52
2022-11-13T01:36:27.400Z,5.56
2022-11-13T01:36:37.457Z,5.49
2022-11-13T01:36:47.283Z,5.50
2022-11-13T01:36:57.403Z,5.53
2022-11-13T01:37:07.348Z,5.50
2022-11-13T01:37:17.284Z,5.50
2022-11-13T01:37:27.206Z,5.48
2022-11-13T01:37:37.245Z,5.50
2022-11-13T01:37:47.273Z,5.53
2022-11-13T01:37:57.246Z,5.50
2022-11-13T01:38:07.367Z,5.52
2022-11-13T01:38:17.323Z,5.48
2022-11-13T01:38:27.810Z,5.52
2022-11-13T01:38:37.758Z,5.52
2022-11-13T01:38:47.309Z,5.49
2022-11-13T01:38:57.443Z,5.55
2022-11-13T01:39:07.479Z,5.50
2022-11-13T01:39:17.234Z,5.53
2022-11-13T01:39:27.251Z,5.52
2022-11-13T01:39:37.320Z,5.53
2022-11-13T01:39:47.223Z,5.50
2022-11-13T01:39:57.413Z,5.49
2022-11-13T01:40:07.379Z,5.48
2022-11-13T01:40:17.238Z,5.49
2022-11-13T01:40:27.348Z,5.49
2022-11-13T01:40:37.419Z,5.53
2022-11-13T01:40:47.769Z,5.50
2022-11-13T01:40:57.282Z,5.49
2022-11-13T01:41:07.157Z,5.49
2022-11-13T01:41:22.800Z,5.49
2022-11-13T01:41:27.458Z,5.52
2022-11-13T01:41:37.171Z,5.50
2022-11-13T01:41:47.203Z,5.53
2022-11-13T01:41:57.297Z,5.48
2022-11-13T01:42:07.294Z,5.45
2022-11-13T01:42:17.474Z,5.48
2022-11-13T01:42:27.256Z,5.50
2022-11-13T01:42:37.207Z,5.50
2022-11-13T01:42:47.330Z,5.50
2022-11-13T01:42:57.481Z,5.49
2022-11-13T01:43:07.199Z,5.46
2022-11-13T01:43:17.434Z,5.50
2022-11-13T01:43:27.219Z,5.53
2022-11-13T01:43:37.422Z,5.46
2022-11-13T01:43:47.256Z,5.49
2022-11-13T01:43:57.336Z,5.49
2022-11-13T01:44:08.234Z,5.48
2022-11-13T01:44:17.337Z,5.50
2022-11-13T01:44:27.169Z,5.46
2022-11-13T01:44:37.360Z,5.48
2022-11-13T01:44:47.210Z,5.49
2022-11-13T01:44:57.380Z,5.50
2022-11-13T01:45:07.386Z,5.46
2022-11-13T01:45:17.285Z,5.53
2022-11-13T01:45:27.278Z,5.49
2022-11-13T01:45:37.419Z,5.52
2022-11-13T01:45:47.328Z,5.52
2022-11-13T01:45:57.412Z,5.43
2022-11-13T01:46:07.172Z,5.49
2022-11-13T01:46:17.196Z,5.49
2022-11-13T01:46:27.216Z,5.48
2022-11-13T01:46:37.298Z,5.46
2022-11-13T01:46:47.174Z,5.40
2022-11-13T01:46:57.407Z,5.46
2022-11-13T01:47:07.153Z,5.45
2022-11-13T01:47:17.181Z,5.52
2022-11-13T01:47:27.402Z,5.46
2022-11-13T01:47:37.335Z,5.46
2022-11-13T01:47:47.180Z,5.49
2022-11-13T01:47:57.239Z,5.49
2022-11-13T01:48:07.162Z,5.46
2022-11-13T01:48:17.316Z,5.45
2022-11-13T01:48:27.509Z,5.45
2022-11-13T01:48:37.424Z,5.45
2022-11-13T01:48:47.262Z,5.49
2022-11-13T01:48:57.230Z,5.48
2022-11-13T01:49:07.320Z,5.41
2022-11-13T01:49:17.262Z,5.45
2022-11-13T01:49:27.217Z,5.48
2022-11-13T01:49:37.161Z,5.46
2022-11-13T01:49:47.237Z,5.46
2022-11-13T01:49:57.190Z,5.48
2022-11-13T01:50:07.258Z,5.48
2022-11-13T01:50:17.300Z,5.45
2022-11-13T01:50:27.201Z,5.49
2022-11-13T01:50:37.350Z,5.41
2022-11-13T01:50:47.344Z,5.46
2022-11-13T01:50:57.415Z,5.46
2022-11-13T01:51:07.215Z,5.46
2022-11-13T01:51:17.445Z,5.45
2022-11-13T01:51:27.357Z,5.49
2022-11-13T01:51:37.310Z,5.46
2022-11-13T01:51:47.389Z,5.48
2022-11-13T01:51:57.222Z,5.46
2022-11-13T01:52:07.278Z,5.45
2022-11-13T01:52:17.259Z,5.45
2022-11-13T01:52:27.252Z,5.48
2022-11-13T01:52:37.357Z,5.48
2022-11-13T01:52:47.359Z,5.43
2022-11-13T01:52:57.490Z,5.45
2022-11-13T01:53:07.224Z,5.41
2022-11-13T01:53:17.265Z,5.41
2022-11-13T01:53:27.223Z,5.46
2022-11-13T01:53:37.427Z,5.43
2022-11-13T01:53:47.299Z,5.40
2022-11-13T01:53:57.270Z,5.43
2022-11-13T01:54:07.432Z,5.45
2022-11-13T01:54:17.415Z,5.43
2022-11-13T01:54:27.339Z,5.48
2022-11-13T01:54:37.211Z,5.48
2022-11-13T01:54:47.370Z,5.43
2022-11-13T01:54:57.246Z,5.45
2022-11-13T01:55:07.215Z,5.45
2022-11-13T01:55:17.180Z,5.46
2022-11-13T01:55:27.469Z,5.41
2022-11-13T01:55:37.290Z,5.38
2022-11-13T01:55:47.196Z,5.46
2022-11-13T01:55:57.220Z,5.43
2022-11-13T01:56:07.433Z,5.41
2022-11-13T01:56:17.167Z,5.41
2022-11-13T01:56:27.231Z,5.38
2022-11-13T01:56:37.283Z,5.43
2022-11-13T01:56:47.303Z,5.46
2022-11-13T01:56:57.271Z,5.43
2022-11-13T01:57:07.247Z,5.37
2022-11-13T01:57:17.209Z,5.43
2022-11-13T01:57:27.358Z,5.45
2022-11-13T01:57:37.402Z,5.43
2022-11-13T01:57:47.337Z,5.45
2022-11-13T01:57:57.357Z,5.41
2022-11-13T01:58:07.319Z,5.45
2022-11-13T01:58:17.215Z,5.43
2022-11-13T01:58:27.545Z,5.41
2022-11-13T01:58:37.280Z,5.41
2022-11-13T01:58:47.375Z,5.43
2022-11-13T01:58:57.234Z,5.46
2022-11-13T01:59:07.320Z,5.46
2022-11-13T01:59:17.423Z,5.48
2022-11-13T01:59:27.374Z,5.41
2022-11-13T01:59:37.180Z,5.43
2022-11-13T01:59:47.245Z,5.41
2022-11-13T01:59:57.367Z,5.43
2022-11-13T02:00:07.361Z,5.43
2022-11-13T02:00:17.188Z,5.40
2022-11-13T02:00:27.430Z,5.40
2022-11-13T02:00:37.315Z,5.37
2022-11-13T02:00:47.284Z,5.45
2022-11-13T02:00:57.274Z,5.41
2022-11-13T02:01:07.156Z,5.40
2022-11-13T02:01:17.347Z,5.43
2022-11-13T02:01:27.231Z,5.35
2022-11-13T02:01:37.393Z,5.38
2022-11-13T02:01:47.472Z,5.37
2022-11-13T02:01:57.259Z,5.40
2022-11-13T02:02:07.457Z,5.38
2022-11-13T02:02:17.385Z,5.38
2022-11-13T02:02:27.401Z,5.43
2022-11-13T02:02:37.254Z,5.41
2022-11-13T02:02:47.266Z,5.40
2022-11-13T02:02:57.295Z,5.41
2022-11-13T02:03:07.212Z,5.38
2022-11-13T02:03:17.182Z,5.37
2022-11-13T02:03:27.453Z,5.37
2022-11-13T02:03:37.319Z,5.40
2022-11-13T02:03:47.407Z,5.37
2022-11-13T02:03:57.446Z,5.38
2022-11-13T02:04:07.269Z,5.32
2022-11-13T02:04:17.330Z,5.34
2022-11-13T02:04:27.306Z,5.34
2022-11-13T02:04:37.342Z,5.32
2022-11-13T02:04:47.401Z,5.32
2022-11-13T02:04:57.220Z,5.35
2022-11-13T02:05:07.386Z,5.32
2022-11-13T02:05:17.396Z,5.30
2022-11-13T02:05:27.463Z,5.35
2022-11-13T02:05:37.362Z,5.32
2022-11-13T02:05:47.366Z,5.34
2022-11-13T02:05:57.269Z,5.32
2022-11-13T02:06:07.269Z,5.32
2022-11-13T02:06:17.181Z,5.32
2022-11-13T02:06:27.295Z,5.34
2022-11-13T02:06:37.263Z,5.28
2022-11-13T02:06:47.404Z,5.32
2022-11-13T02:06:57.208Z,5.27
2022-11-13T02:07:07.238Z,5.32
2022-11-13T02:07:17.385Z,5.31
2022-11-13T02:07:27.501Z,5.31
2022-11-13T02:07:37.307Z,5.32
2022-11-13T02:07:47.255Z,5.30
2022-11-13T02:07:57.164Z,5.28
2022-11-13T02:08:07.255Z,5.31
2022-11-13T02:08:17.396Z,5.27
2022-11-13T02:08:27.741Z,5.31
2022-11-13T02:08:37.320Z,5.30
2022-11-13T02:08:47.392Z,5.30
2022-11-13T02:08:57.155Z,5.30
2022-11-13T02:09:07.359Z,5.25
2022-11-13T02:09:17.332Z,5.30
2022-11-13T02:09:27.477Z,5.27
2022-11-13T02:09:37.185Z,5.31
2022-11-13T02:09:47.233Z,5.27
2022-11-13T02:09:57.170Z,5.28
2022-11-13T02:10:07.411Z,5.28
2022-11-13T02:10:17.224Z,5.30
2022-11-13T02:10:27.218Z,5.27
2022-11-13T02:10:37.265Z,5.30
2022-11-13T02:10:47.398Z,5.30
2022-11-13T02:10:57.232Z,5.27
2022-11-13T02:11:07.347Z,5.30
2022-11-13T02:11:17.269Z,5.23
2022-11-13T02:11:27.253Z,5.25
2022-11-13T02:11:37.233Z,5.25
2022-11-13T02:11:47.175Z,5.28
2022-11-13T02:11:57.374Z,5.28
2022-11-13T02:12:07.230Z,5.25
2022-11-13T02:12:17.326Z,5.22
2022-11-13T02:12:28.222Z,5.22
2022-11-13T02:12:37.243Z,5.25
2022-11-13T02:12:47.205Z,5.20
2022-11-13T02:12:57.275Z,5.22
2022-11-13T02:13:07.247Z,5.30
2022-11-13T02:13:17.319Z,5.27
2022-11-13T02:13:27.223Z,5.23